Time;durP1;ratioP1;P1;durP2;ratioP2;P2;SDS_P1;SDS_P2;PMS_P1;PMS_P2;Temp;Humidity;BMP_temperature;BMP_pressure;BME280_temperature;BME280_humidity;BME280_pressure;Samples;Min_cycle;Max_cycle;Signal;HPM_P1;HPM_P2
2023/10/04 00:01:47;;;;;;;2.87;2.20;;;;;;;12.77;100.00;99213.41;5116637;28;20199;-72
2023/10/04 00:04:13;;;;;;;4.60;2.20;;;;;;;12.72;100.00;99223.88;5117649;28;20205;-72
2023/10/04 00:06:41;;;;;;;3.17;2.00;;;;;;;12.76;100.00;99217.13;5116809;28;20562;-72
2023/10/04 00:09:09;;;;;;;4.00;1.90;;;;;;;12.73;100.00;99222.00;5116746;28;20274;-72
2023/10/04 00:11:36;;;;;;;3.83;2.03;;;;;;;12.66;100.00;99232.69;5116778;28;20234;-72
2023/10/04 00:14:03;;;;;;;2.37;1.90;;;;;;;12.63;100.00;99232.28;5116439;28;20588;-72
2023/10/04 00:16:32;;;;;;;3.23;2.17;;;;;;;12.74;100.00;99240.50;5116303;28;20217;-72
2023/10/04 00:18:58;;;;;;;3.70;2.10;;;;;;;12.57;100.00;99244.56;5116542;28;20224;-72
2023/10/04 00:21:25;;;;;;;3.93;2.03;;;;;;;12.77;100.00;99234.75;5116555;28;20206;-72
2023/10/04 00:23:52;;;;;;;3.17;2.10;;;;;;;12.77;100.00;99233.94;5117007;28;20263;-72
2023/10/04 00:26:18;;;;;;;2.77;1.77;;;;;;;12.82;100.00;99237.63;5116198;28;20214;-72
2023/10/04 00:28:45;;;;;;;2.73;2.00;;;;;;;12.87;100.00;99239.69;5116335;28;20225;-72
2023/10/04 00:31:13;;;;;;;3.23;1.90;;;;;;;12.88;100.00;99236.00;5116047;28;20220;-72
2023/10/04 00:33:39;;;;;;;2.70;2.00;;;;;;;12.87;100.00;99245.00;5116261;28;20236;-72
2023/10/04 00:36:06;;;;;;;4.10;2.07;;;;;;;12.71;100.00;99232.09;5116282;28;20222;-72
2023/10/04 00:38:32;;;;;;;2.87;2.07;;;;;;;12.89;100.00;99240.31;5116134;28;20222;-72
2023/10/04 00:40:58;;;;;;;4.50;2.10;;;;;;;12.90;100.00;99241.94;5116014;28;20304;-72
2023/10/04 00:43:25;;;;;;;3.13;2.10;;;;;;;12.93;100.00;99233.53;5115876;28;20205;-72
2023/10/04 00:45:53;;;;;;;3.67;2.20;;;;;;;12.98;100.00;99231.09;5116059;28;20211;-72
2023/10/04 00:48:23;;;;;;;2.70;2.10;;;;;;;12.96;100.00;99233.13;5115987;28;20316;-72
2023/10/04 00:50:49;;;;;;;3.00;2.23;;;;;;;13.04;100.00;99235.63;5116369;28;20530;-72
2023/10/04 00:53:21;;;;;;;2.20;1.67;;;;;;;13.04;100.00;99236.44;5116084;28;20227;-72
2023/10/04 00:55:49;;;;;;;3.30;1.93;;;;;;;13.02;100.00;99238.47;5116253;28;20194;-72
2023/10/04 00:58:17;;;;;;;2.47;1.90;;;;;;;12.91;100.00;99230.25;5116124;28;20224;-72
2023/10/04 01:00:45;;;;;;;3.37;1.93;;;;;;;13.04;100.00;99225.78;5115920;28;20691;-72
2023/10/04 01:03:14;;;;;;;5.20;2.20;;;;;;;12.99;100.00;99236.25;5115937;27;20676;-72
2023/10/04 01:05:46;;;;;;;2.60;2.00;;;;;;;13.13;100.00;99229.88;5115959;28;20199;-72
2023/10/04 01:08:16;;;;;;;4.87;2.27;;;;;;;13.15;100.00;99229.66;5115478;28;20232;-72
2023/10/04 01:10:44;;;;;;;2.67;1.77;;;;;;;13.14;100.00;99226.16;5115653;28;20205;-72
2023/10/04 01:13:14;;;;;;;5.47;1.93;;;;;;;13.14;100.00;99228.84;5115505;28;20224;-72
2023/10/04 01:15:41;;;;;;;3.83;2.00;;;;;;;13.14;100.00;99226.16;5115378;28;20580;-72
2023/10/04 01:18:11;;;;;;;3.03;2.10;;;;;;;13.14;100.00;99225.34;5115393;28;20232;-72
2023/10/04 01:20:39;;;;;;;2.20;1.97;;;;;;;13.07;100.00;99227.22;5115686;28;20241;-72
2023/10/04 01:23:11;;;;;;;3.53;2.07;;;;;;;13.08;100.00;99220.84;5115402;28;20204;-72
2023/10/04 01:25:39;;;;;;;4.70;2.03;;;;;;;13.01;100.00;99222.66;5114990;28;20220;-72
2023/10/04 01:28:12;;;;;;;5.50;2.60;;;;;;;12.93;100.00;99229.00;5115218;28;20228;-72
2023/10/04 01:30:43;;;;;;;4.57;1.90;;;;;;;12.87;100.00;99221.84;5115156;28;20236;-72
2023/10/04 01:33:10;;;;;;;4.53;2.00;;;;;;;12.89;100.00;99229.63;5114776;28;20218;-72
2023/10/04 01:35:40;;;;;;;4.53;2.27;;;;;;;12.88;100.00;99220.78;5115153;28;20221;-72
2023/10/04 01:38:07;;;;;;;5.67;2.43;;;;;;;12.92;100.00;99222.03;5114725;28;20224;-72
2023/10/04 01:40:35;;;;;;;3.17;2.20;;;;;;;12.88;100.00;99212.78;5115019;28;20221;-72
2023/10/04 01:43:09;;;;;;;2.67;2.10;;;;;;;12.99;100.00;99225.56;5114897;28;20207;-72
2023/10/04 01:45:36;;;;;;;3.77;2.00;;;;;;;12.98;100.00;99225.78;5114608;28;20599;-72
2023/10/04 01:48:04;;;;;;;3.17;2.33;;;;;;;12.94;100.00;99230.63;5114447;28;20727;-72
2023/10/04 01:50:31;;;;;;;2.70;2.13;;;;;;;12.98;100.00;99223.91;5114428;28;20623;-72
2023/10/04 01:52:57;;;;;;;2.67;1.77;;;;;;;12.85;100.00;99226.53;5114383;28;20699;-72
2023/10/04 01:55:23;;;;;;;2.97;2.10;;;;;;;12.88;100.00;99228.81;5114990;28;20211;-72
2023/10/04 01:57:50;;;;;;;3.37;2.07;;;;;;;12.89;100.00;99225.09;5114582;28;20224;-72
2023/10/04 02:00:17;;;;;;;4.03;2.37;;;;;;;12.86;100.00;99235.38;5114711;28;20208;-72
2023/10/04 02:02:44;;;;;;;3.60;2.30;;;;;;;12.85;100.00;99231.88;5114676;27;20240;-72
2023/10/04 02:05:17;;;;;;;3.63;2.10;;;;;;;12.91;100.00;99230.25;5114310;28;20725;-72
2023/10/04 02:07:44;;;;;;;6.27;2.30;;;;;;;12.95;100.00;99231.47;5114192;28;20231;-72
2023/10/04 02:10:13;;;;;;;3.30;2.23;;;;;;;13.02;100.00;99227.81;5114446;28;20205;-72
2023/10/04 02:12:39;;;;;;;3.87;1.90;;;;;;;13.08;100.00;99227.00;5114367;28;20222;-72
2023/10/04 02:15:07;;;;;;;5.87;1.83;;;;;;;13.13;100.00;99232.53;5114224;28;20223;-72
2023/10/04 02:17:33;;;;;;;3.37;1.90;;;;;;;13.15;100.00;99232.34;5113784;28;20243;-72
2023/10/04 02:20:00;;;;;;;4.03;2.20;;;;;;;13.19;100.00;99234.38;5114003;28;20219;-72
2023/10/04 02:22:28;;;;;;;3.10;2.07;;;;;;;13.19;100.00;99233.53;5113991;28;20291;-72
2023/10/04 02:24:55;;;;;;;3.37;2.03;;;;;;;13.24;100.00;99231.91;5113861;28;20602;-72
2023/10/04 02:27:22;;;;;;;3.67;2.03;;;;;;;13.30;100.00;99246.28;5114125;28;20632;-72
2023/10/04 02:29:49;;;;;;;2.63;2.00;;;;;;;13.15;100.00;99243.81;5113935;28;20573;-72
2023/10/04 02:32:16;;;;;;;4.30;2.07;;;;;;;13.20;100.00;99236.00;5114156;28;20207;-72
2023/10/04 02:34:43;;;;;;;4.10;2.30;;;;;;;13.13;100.00;99234.38;5114087;28;20220;-72
2023/10/04 02:37:09;;;;;;;4.87;2.10;;;;;;;13.10;100.00;99240.13;5114115;28;20230;-72
2023/10/04 02:39:37;;;;;;;2.03;1.83;;;;;;;13.11;100.00;99234.56;5114109;28;20660;-72
2023/10/04 02:42:09;;;;;;;4.17;2.00;;;;;;;13.15;100.00;99243.81;5114050;28;20204;-72
2023/10/04 02:44:35;;;;;;;3.90;2.43;;;;;;;13.11;100.00;99239.13;5114069;28;20189;-72
2023/10/04 02:47:06;;;;;;;4.60;2.20;;;;;;;12.96;100.00;99247.28;5114156;28;20204;-72
2023/10/04 02:49:34;;;;;;;3.50;2.00;;;;;;;12.97;100.00;99250.84;5113952;28;20646;-72
2023/10/04 02:52:01;;;;;;;2.47;1.97;;;;;;;12.93;100.00;99250.38;5113699;28;20692;-72
2023/10/04 02:54:28;;;;;;;3.17;2.00;;;;;;;12.94;100.00;99240.53;5114071;28;20227;-72
2023/10/04 02:56:56;;;;;;;4.23;2.37;;;;;;;12.95;100.00;99244.81;5114015;28;20218;-72
2023/10/04 02:59:24;;;;;;;3.93;2.17;;;;;;;12.90;100.00;99249.97;5113584;28;20702;-72
2023/10/04 03:01:51;;;;;;;3.37;2.20;;;;;;;12.85;100.00;99250.56;5113517;28;20686;-72
2023/10/04 03:04:19;;;;;;;2.67;2.00;;;;;;;12.86;100.00;99249.56;5113736;28;20204;-72
2023/10/04 03:06:45;;;;;;;4.20;2.00;;;;;;;13.03;100.00;99255.34;5113781;28;20207;-72
2023/10/04 03:09:12;;;;;;;3.30;2.13;;;;;;;13.12;100.00;99249.56;5113674;28;20220;-72
2023/10/04 03:11:42;;;;;;;3.70;2.40;;;;;;;13.09;100.00;99247.34;5113720;28;20209;-72
2023/10/04 03:14:11;;;;;;;3.50;2.10;;;;;;;13.11;100.00;99249.78;5113762;28;20220;-72
2023/10/04 03:16:40;;;;;;;5.20;2.30;;;;;;;13.03;100.00;99245.47;5113313;28;20255;-72
2023/10/04 03:19:07;;;;;;;3.47;2.00;;;;;;;12.95;100.00;99242.16;5113332;28;20228;-72
2023/10/04 03:21:34;;;;;;;3.23;2.03;;;;;;;12.93;100.00;99241.56;5113822;28;20294;-73
2023/10/04 03:24:00;;;;;;;2.47;2.10;;;;;;;12.90;100.00;99239.28;5113680;28;20209;-72
2023/10/04 03:26:29;;;;;;;3.50;2.10;;;;;;;12.91;100.00;99243.59;5113783;28;20216;-72
2023/10/04 03:28:55;;;;;;;2.33;1.80;;;;;;;13.07;100.00;99251.22;5117338;28;20235;-72
2023/10/04 03:31:23;;;;;;;5.47;2.03;;;;;;;13.04;100.00;99249.78;5117172;28;20566;-72
2023/10/04 03:33:51;;;;;;;3.60;2.20;;;;;;;12.97;100.00;99261.50;5116963;28;20632;-72
2023/10/04 03:36:18;;;;;;;2.93;2.20;;;;;;;12.97;100.00;99261.50;5117275;28;20204;-72
2023/10/04 03:38:49;;;;;;;3.23;2.00;;;;;;;12.87;100.00;99261.03;5117074;28;20229;-73
2023/10/04 03:41:16;;;;;;;2.70;2.30;;;;;;;12.91;100.00;99257.75;5116796;28;20652;-72
2023/10/04 03:43:43;;;;;;;2.40;2.17;;;;;;;12.84;100.00;99250.78;5117037;28;20244;-72
2023/10/04 03:46:16;;;;;;;2.67;2.00;;;;;;;12.86;100.00;99252.22;5116661;28;20203;-72
2023/10/04 03:48:45;;;;;;;3.67;1.90;;;;;;;12.85;100.00;99258.56;5116865;28;20227;-72
2023/10/04 03:51:13;;;;;;;3.53;2.17;;;;;;;12.82;100.00;99248.31;5117587;28;20210;-72
2023/10/04 03:53:41;;;;;;;4.70;2.00;;;;;;;12.84;100.00;99250.78;5116938;28;20233;-72
2023/10/04 03:56:10;;;;;;;6.07;2.10;;;;;;;12.79;100.00;99250.59;5116966;28;20258;-72
2023/10/04 03:58:37;;;;;;;3.10;2.00;;;;;;;12.87;100.00;99256.53;5116575;28;20757;-72
2023/10/04 04:01:05;;;;;;;2.50;2.10;;;;;;;12.82;100.00;99247.47;5116107;28;20668;-72
2023/10/04 04:03:31;;;;;;;6.47;2.47;;;;;;;12.77;100.00;99255.28;5116342;28;20664;-72
2023/10/04 04:05:58;;;;;;;5.57;2.40;;;;;;;12.85;100.00;99252.41;5116641;28;20590;-72
2023/10/04 04:08:25;;;;;;;3.73;1.90;;;;;;;12.78;100.00;99247.06;5116667;28;20280;-72
2023/10/04 04:10:52;;;;;;;2.70;2.10;;;;;;;12.72;100.00;99253.25;5116616;28;20201;-72
2023/10/04 04:13:18;;;;;;;3.27;2.10;;;;;;;12.82;100.00;99263.50;5116076;27;20721;-72
2023/10/04 04:15:45;;;;;;;4.60;1.97;;;;;;;12.87;100.00;99255.69;5116518;28;20634;-72
2023/10/04 04:18:17;;;;;;;2.80;2.00;;;;;;;12.77;100.00;99256.13;5115932;28;20226;-72
2023/10/04 04:20:43;;;;;;;2.53;2.00;;;;;;;12.90;100.00;99258.81;5116389;28;20221;-72
2023/10/04 04:23:10;;;;;;;3.30;2.00;;;;;;;12.79;100.00;99264.72;5116226;28;20201;-72
2023/10/04 04:25:38;;;;;;;4.80;2.30;;;;;;;12.66;100.00;99259.38;5115910;28;20537;-72
2023/10/04 04:28:07;;;;;;;5.33;2.27;;;;;;;12.62;100.00;99252.78;5115779;28;20233;-72
2023/10/04 04:30:35;;;;;;;2.57;2.00;;;;;;;12.56;100.00;99253.59;5115661;28;20208;-72
2023/10/04 04:33:04;;;;;;;3.13;2.10;;;;;;;12.58;100.00;99269.41;5115717;28;20231;-72
2023/10/04 04:35:40;;;;;;;3.03;2.30;;;;;;;12.52;100.00;99264.91;5115946;28;20292;-72
2023/10/04 04:38:16;;;;;;;3.30;2.00;;;;;;;12.56;100.00;99269.63;5115476;28;20237;-72
2023/10/04 04:40:47;;;;;;;2.87;1.80;;;;;;;12.53;100.00;99266.53;5115226;28;20255;-72
2023/10/04 04:43:34;;;;;;;2.37;1.80;;;;;;;12.50;100.00;99270.44;5115512;28;20191;-72
2023/10/04 04:46:00;;;;;;;4.87;2.00;;;;;;;12.38;100.00;99282.69;5115864;28;20224;-72
2023/10/04 04:48:35;;;;;;;3.17;1.83;;;;;;;12.28;100.00;99282.25;5115485;28;20296;-72
2023/10/04 04:51:10;;;;;;;3.07;1.77;;;;;;;12.39;100.00;99284.34;5115008;28;20191;-72
2023/10/04 04:53:41;;;;;;;2.50;1.73;;;;;;;12.34;100.00;99281.44;5115468;28;20291;-72
2023/10/04 04:56:12;;;;;;;3.73;1.83;;;;;;;12.24;100.00;99270.34;5115232;28;20207;-72
2023/10/04 04:58:38;;;;;;;4.47;2.20;;;;;;;12.08;100.00;99280.53;5115990;28;20261;-72
2023/10/04 05:01:08;;;;;;;2.90;1.80;;;;;;;11.91;100.00;99277.38;5115248;28;20298;-72
2023/10/04 05:03:35;;;;;;;3.80;2.17;;;;;;;11.83;100.00;99277.53;5115340;28;20491;-72
2023/10/04 05:06:03;;;;;;;5.03;2.33;;;;;;;11.78;100.00;99277.31;5115178;28;20241;-72
2023/10/04 05:08:31;;;;;;;4.93;2.47;;;;;;;11.74;100.00;99286.72;5114870;28;20224;-72
2023/10/04 05:10:59;;;;;;;4.60;2.53;;;;;;;11.71;100.00;99276.44;5115243;28;20210;-72
2023/10/04 05:13:26;;;;;;;4.67;2.70;;;;;;;11.70;100.00;99282.81;5115039;28;20228;-72
2023/10/04 05:15:51;;;;;;;4.60;2.67;;;;;;;11.60;100.00;99276.16;5114735;28;20219;-72
2023/10/04 05:18:19;;;;;;;3.40;2.20;;;;;;;11.63;100.00;99270.47;5114670;28;20231;-72
2023/10/04 05:20:53;;;;;;;5.33;2.57;;;;;;;11.53;100.00;99280.63;5114601;28;20210;-72
2023/10/04 05:23:22;;;;;;;3.13;2.13;;;;;;;11.48;100.00;99277.72;5114731;28;20564;-72
2023/10/04 05:25:49;;;;;;;4.00;2.20;;;;;;;11.49;100.00;99274.84;5114437;28;20274;-72
2023/10/04 05:28:15;;;;;;;4.13;2.37;;;;;;;11.40;100.00;99273.34;5114567;28;20234;-72
2023/10/04 05:30:45;;;;;;;3.77;2.00;;;;;;;11.35;100.00;99273.09;5114433;28;20667;-72
2023/10/04 05:33:13;;;;;;;2.90;1.70;;;;;;;11.23;100.00;99264.84;5114551;28;20224;-72
2023/10/04 05:35:41;;;;;;;3.70;2.10;;;;;;;11.23;100.00;99267.50;5114545;28;20250;-72
2023/10/04 05:38:08;;;;;;;4.23;2.23;;;;;;;11.17;100.00;99263.97;5114322;28;20915;-72
2023/10/04 05:40:39;;;;;;;2.47;1.90;;;;;;;11.19;100.00;99271.56;5114244;28;20219;-72
2023/10/04 05:43:08;;;;;;;3.30;2.40;;;;;;;11.22;100.00;99270.38;5114337;28;20210;-72
2023/10/04 05:45:35;;;;;;;3.63;2.30;;;;;;;11.22;100.00;99278.38;5114072;28;20215;-72
2023/10/04 05:48:04;;;;;;;3.50;2.40;;;;;;;11.24;100.00;99286.97;5113804;28;20272;-72
2023/10/04 05:50:32;;;;;;;6.07;3.07;;;;;;;11.35;100.00;99283.75;5114461;28;20217;-72
2023/10/04 05:53:04;;;;;;;5.53;3.27;;;;;;;11.47;100.00;99289.38;5114411;28;20203;-72
2023/10/04 05:55:30;;;;;;;5.03;2.67;;;;;;;11.58;100.00;99284.31;5114762;28;20192;-72
2023/10/04 05:57:56;;;;;;;4.93;3.17;;;;;;;11.57;100.00;99281.88;5113698;28;20223;-72
2023/10/04 06:00:24;;;;;;;4.17;2.57;;;;;;;11.67;100.00;99298.38;5114312;28;20210;-72
2023/10/04 06:02:54;;;;;;;7.00;3.37;;;;;;;11.70;100.00;99288.13;5114032;28;20214;-72
2023/10/04 06:05:22;;;;;;;4.93;2.70;;;;;;;11.69;100.00;99296.31;5114302;28;20238;-72
2023/10/04 06:07:54;;;;;;;3.90;2.50;;;;;;;11.69;100.00;99296.31;5114191;28;20737;-73
2023/10/04 06:10:22;;;;;;;4.27;3.00;;;;;;;11.76;100.00;99303.31;5114268;27;20187;-73
2023/10/04 06:12:51;;;;;;;3.30;2.60;;;;;;;11.90;100.00;99301.56;5113903;28;20211;-73
2023/10/04 06:15:20;;;;;;;6.50;3.63;;;;;;;11.93;100.00;99299.31;5113416;28;20223;-73
2023/10/04 06:17:47;;;;;;;8.90;3.53;;;;;;;11.93;100.00;99304.66;5113906;28;20222;-73
2023/10/04 06:20:25;;;;;;;3.77;2.87;;;;;;;12.08;100.00;99310.66;5113380;28;20203;-73
2023/10/04 06:22:54;;;;;;;8.03;2.97;;;;;;;12.10;100.00;99305.97;5113326;28;20210;-73
2023/10/04 06:25:22;;;;;;;5.47;2.87;;;;;;;12.14;100.00;99309.06;5113362;28;20291;-73
2023/10/04 06:27:53;;;;;;;4.97;2.87;;;;;;;12.21;100.00;99310.72;5113159;28;20591;-73
2023/10/04 06:30:22;;;;;;;3.47;2.60;;;;;;;12.32;100.00;99315.50;5113356;28;20213;-73
2023/10/04 06:32:53;;;;;;;4.33;3.00;;;;;;;12.42;100.00;99312.44;5113871;28;20234;-73
2023/10/04 06:35:23;;;;;;;4.63;2.50;;;;;;;12.48;100.00;99314.34;5113407;28;20207;-73
2023/10/04 06:37:50;;;;;;;3.87;2.63;;;;;;;12.55;100.00;99313.31;5113450;28;20278;-73
2023/10/04 06:40:19;;;;;;;4.60;2.77;;;;;;;12.60;100.00;99324.22;5114003;28;20204;-73
2023/10/04 06:42:46;;;;;;;5.10;2.93;;;;;;;12.65;100.00;99326.25;5113506;28;20310;-73
2023/10/04 06:45:13;;;;;;;5.30;2.80;;;;;;;12.74;100.00;99325.88;5113530;28;20280;-73
2023/10/04 06:47:43;;;;;;;4.70;2.87;;;;;;;12.82;100.00;99322.22;5113623;28;20228;-73
2023/10/04 06:50:14;;;;;;;5.10;2.67;;;;;;;12.93;100.00;99325.09;5113883;28;20262;-73
2023/10/04 06:52:47;;;;;;;6.57;2.97;;;;;;;12.99;100.00;99329.69;5114412;28;20188;-73
2023/10/04 06:55:14;;;;;;;7.40;3.00;;;;;;;13.09;100.00;99332.78;5114127;28;20206;-73
2023/10/04 06:57:40;;;;;;;3.77;3.00;;;;;;;13.19;100.00;99340.38;5113098;28;20223;-73
2023/10/04 07:00:15;;;;;;;6.37;2.77;;;;;;;13.21;100.00;99331.13;5113445;28;20205;-73
2023/10/04 07:03:01;;;;;;;6.40;2.80;;;;;;;13.25;100.00;99331.56;5113652;28;20310;-73
2023/10/04 07:05:38;;;;;;;5.00;2.77;;;;;;;13.32;100.00;99329.69;5117768;28;20269;-73
2023/10/04 07:08:08;;;;;;;4.37;3.07;;;;;;;13.40;100.00;99333.00;5118110;28;20321;-73
2023/10/04 07:10:36;;;;;;;5.73;3.10;;;;;;;13.54;100.00;99344.47;5117127;28;20308;-73
2023/10/04 07:13:03;;;;;;;4.77;2.57;;;;;;;13.56;100.00;99343.25;5117127;28;20636;-73
2023/10/04 07:15:30;;;;;;;5.20;2.93;;;;;;;13.59;100.00;99340.16;5117325;28;20716;-73
2023/10/04 07:17:57;;;;;;;5.53;2.60;;;;;;;13.59;100.00;99340.16;5117299;28;20702;-73
2023/10/04 07:20:24;;;;;;;6.20;2.63;;;;;;;13.67;100.00;99342.63;5117870;28;20203;-73
2023/10/04 07:22:59;;;;;;;5.80;3.13;;;;;;;13.74;100.00;99342.63;5117588;28;20331;-73
2023/10/04 07:25:27;;;;;;;7.30;3.20;;;;;;;13.79;100.00;99353.53;5117191;28;20208;-73
2023/10/04 07:27:55;;;;;;;6.13;3.10;;;;;;;13.77;100.00;99352.88;5116944;28;20273;-73
2023/10/04 07:30:22;;;;;;;5.40;3.10;;;;;;;13.82;100.00;99359.25;5117632;28;20207;-73
2023/10/04 07:32:48;;;;;;;7.63;3.13;;;;;;;13.81;100.00;99349.59;5118504;28;20282;-73
2023/10/04 07:35:19;;;;;;;5.13;3.00;;;;;;;13.85;100.00;99348.16;5118898;28;20225;-73
2023/10/04 07:37:46;;;;;;;6.00;3.07;;;;;;;13.95;100.00;99348.56;5118007;28;20258;-73
2023/10/04 07:40:14;;;;;;;3.57;2.90;;;;;;;13.94;100.00;99351.44;5117757;28;20211;-73
2023/10/04 07:42:43;;;;;;;6.67;3.20;;;;;;;14.05;100.00;99354.28;5117843;28;20199;-73
2023/10/04 07:45:10;;;;;;;7.43;3.00;;;;;;;14.07;100.00;99357.56;5117257;28;20614;-73
2023/10/04 07:47:38;;;;;;;5.67;3.00;;;;;;;14.19;100.00;99360.41;5118938;28;20225;-72
2023/10/04 07:50:09;;;;;;;7.00;2.77;;;;;;;14.19;100.00;99363.91;5117415;28;20294;-72
2023/10/04 07:52:36;;;;;;;5.07;2.67;;;;;;;14.27;100.00;99369.06;5116879;28;20188;-72
2023/10/04 07:55:05;;;;;;;5.47;2.60;;;;;;;14.40;100.00;99373.53;5116535;28;20227;-72
2023/10/04 07:57:36;;;;;;;6.53;3.10;;;;;;;14.43;100.00;99371.25;5116332;28;20688;-72
2023/10/04 08:00:07;;;;;;;5.00;1.60;;;;;;;14.43;100.00;99375.81;5116663;28;20186;-72
2023/10/04 08:02:33;;;;;;;4.67;1.77;;;;;;;14.72;100.00;99373.41;5116215;28;20214;-72
2023/10/04 08:05:00;;;;;;;6.33;2.10;;;;;;;14.71;100.00;99371.78;5116661;28;20203;-72
2023/10/04 08:07:26;;;;;;;3.80;1.60;;;;;;;14.76;100.00;99363.94;5116390;28;20222;-72
2023/10/04 08:09:52;;;;;;;5.23;1.77;;;;;;;14.78;100.00;99367.19;5116528;28;20200;-72
2023/10/04 08:12:20;;;;;;;4.00;1.77;;;;;;;14.76;100.00;99368.44;5116885;28;20282;-72
2023/10/04 08:14:47;;;;;;;6.00;1.80;;;;;;;14.83;100.00;99371.94;5114711;28;20310;-72
2023/10/04 08:17:16;;;;;;;6.70;1.90;;;;;;;14.90;100.00;99373.53;5116380;28;20573;-72
2023/10/04 08:19:43;;;;;;;4.83;1.50;;;;;;;15.06;100.00;99374.88;5116200;28;20289;-72
2023/10/04 08:22:10;;;;;;;4.60;1.70;;;;;;;15.03;100.00;99375.31;5117279;28;20203;-72
2023/10/04 08:24:37;;;;;;;3.20;1.73;;;;;;;15.12;100.00;99372.16;5116185;28;20203;-72
2023/10/04 08:27:04;;;;;;;5.97;2.40;;;;;;;15.13;100.00;99365.78;5116276;28;20305;-72
2023/10/04 08:29:34;;;;;;;4.87;1.67;;;;;;;15.09;100.00;99369.91;5116182;28;20239;-72
2023/10/04 08:32:00;;;;;;;3.33;1.60;;;;;;;15.24;100.00;99373.09;5115952;28;20207;-72
2023/10/04 08:34:26;;;;;;;5.80;1.90;;;;;;;15.34;100.00;99368.09;5116260;28;20576;-73
2023/10/04 08:36:53;;;;;;;6.43;1.93;;;;;;;15.35;100.00;99368.94;5115877;28;20229;-73
2023/10/04 08:39:20;;;;;;;6.23;1.70;;;;;;;15.40;100.00;99367.25;5115612;28;20231;-73
2023/10/04 08:41:47;;;;;;;3.73;1.50;;;;;;;15.30;100.00;99366.06;5115738;28;20252;-73
2023/10/04 08:44:14;;;;;;;5.20;1.80;;;;;;;15.37;100.00;99366.88;5115402;28;20654;-73
2023/10/04 08:46:43;;;;;;;2.93;1.20;;;;;;;15.56;100.00;99360.53;5115795;28;20559;-72
2023/10/04 08:49:11;;;;;;;4.87;1.80;;;;;;;15.58;100.00;99353.09;5114702;28;20253;-72
2023/10/04 08:51:54;;;;;;;6.07;2.07;;;;;;;15.63;100.00;99361.28;5115483;28;20561;-72
2023/10/04 08:54:25;;;;;;;2.90;1.60;;;;;;;15.53;100.00;99361.78;5115434;28;20214;-72
2023/10/04 08:57:05;;;;;;;6.23;1.60;;;;;;;15.87;100.00;99357.78;5115771;28;20207;-73
2023/10/04 08:59:35;;;;;;;3.07;1.23;;;;;;;15.83;100.00;99362.75;5115733;28;20222;-73
2023/10/04 09:02:02;;;;;;;3.93;1.63;;;;;;;15.82;100.00;99361.13;5114153;28;20210;-73
2023/10/04 09:04:29;;;;;;;3.47;1.37;;;;;;;15.61;100.00;99349.97;5114379;28;20539;-72
2023/10/04 09:06:55;;;;;;;5.97;1.73;;;;;;;15.74;100.00;99353.34;5114147;28;20203;-72
2023/10/04 09:09:22;;;;;;;3.37;1.37;;;;;;;15.94;100.00;99348.63;5115509;28;20223;-72
2023/10/04 09:11:49;;;;;;;4.57;1.30;;;;;;;15.95;98.80;99352.94;5115407;28;20257;-72
2023/10/04 09:14:15;;;;;;;7.83;1.70;;;;;;;16.11;100.00;99338.94;5115125;28;20258;-72
2023/10/04 09:16:42;;;;;;;5.27;1.47;;;;;;;16.36;95.50;99338.84;5114506;28;20218;-72
2023/10/04 09:19:13;;;;;;;4.20;1.77;;;;;;;16.29;96.07;99333.56;5114434;28;20219;-72
2023/10/04 09:21:41;;;;;;;6.10;1.90;;;;;;;16.29;97.47;99330.88;5114779;28;20587;-72
2023/10/04 09:24:14;;;;;;;5.83;1.60;;;;;;;16.24;100.00;99328.06;5114780;28;20214;-72
2023/10/04 09:26:50;;;;;;;6.70;1.87;;;;;;;16.47;100.00;99327.41;5114860;28;20211;-72
2023/10/04 09:29:29;;;;;;;5.47;1.90;;;;;;;16.55;100.00;99324.44;5114777;28;20257;-72
2023/10/04 09:31:55;;;;;;;4.03;1.50;;;;;;;16.52;95.66;99322.97;5114711;28;20257;-72
2023/10/04 09:34:23;;;;;;;3.87;1.80;;;;;;;16.56;99.07;99329.53;5114737;28;20233;-72
2023/10/04 09:36:51;;;;;;;3.77;1.53;;;;;;;16.60;97.51;99328.06;5114676;28;20260;-72
2023/10/04 09:39:23;;;;;;;3.50;1.83;;;;;;;16.59;95.25;99336.31;5114535;28;20346;-72
2023/10/04 09:41:51;;;;;;;4.20;1.73;;;;;;;16.73;95.41;99327.88;5114351;28;20194;-72
2023/10/04 09:44:25;;;;;;;4.10;1.50;;;;;;;16.77;98.64;99318.31;5114256;28;20566;-72
2023/10/04 09:46:57;;;;;;;5.90;1.80;;;;;;;17.16;94.90;99314.25;5114498;28;20572;-72
2023/10/04 09:49:31;;;;;;;8.63;2.00;;;;;;;16.96;92.89;99322.59;5114129;28;20698;-72
2023/10/04 09:52:02;;;;;;;3.07;1.63;;;;;;;16.66;91.02;99324.47;5114394;28;20187;-72
2023/10/04 09:54:29;;;;;;;3.77;1.63;;;;;;;16.92;94.03;99324.09;5114318;28;20207;-72
2023/10/04 09:56:55;;;;;;;4.13;1.77;;;;;;;16.83;89.80;99325.47;5113686;28;20214;-72
2023/10/04 09:59:23;;;;;;;6.73;2.20;;;;;;;16.74;90.54;99326.81;5113628;28;20227;-72
2023/10/04 10:01:54;;;;;;;5.77;1.80;;;;;;;17.14;91.83;99319.84;5114640;28;20212;-72
2023/10/04 10:04:29;;;;;;;3.40;1.83;;;;;;;16.89;91.97;99311.13;5114032;28;20596;-72
2023/10/04 10:07:10;;;;;;;6.80;1.77;;;;;;;17.07;90.13;99313.75;5114230;28;20195;-72
2023/10/04 10:10:10;;;;;;;2.03;1.43;;;;;;;17.08;92.56;99299.28;5114164;28;20198;-72
2023/10/04 10:12:37;;;;;;;3.87;1.60;;;;;;;17.07;90.39;99312.94;5113771;28;20199;-72
2023/10/04 10:15:04;;;;;;;4.70;1.60;;;;;;;17.38;94.64;99310.75;5113842;28;20223;-72
2023/10/04 10:17:33;;;;;;;6.33;2.17;;;;;;;16.94;88.60;99319.31;5113832;28;20640;-72
2023/10/04 10:20:01;;;;;;;6.23;1.93;;;;;;;16.85;91.95;99328.75;5113633;28;20211;-72
2023/10/04 10:22:27;;;;;;;3.50;1.67;;;;;;;17.11;86.83;99314.13;5113833;28;20727;-72
2023/10/04 10:24:57;;;;;;;2.73;1.50;;;;;;;17.10;89.33;99318.66;5113963;28;20208;-72
2023/10/04 10:27:25;;;;;;;4.20;1.97;;;;;;;16.94;89.43;99334.63;5113769;28;20233;-72
2023/10/04 10:29:53;;;;;;;3.27;1.57;;;;;;;16.79;88.29;99320.78;5113854;28;20211;-72
2023/10/04 10:32:21;;;;;;;6.90;1.90;;;;;;;16.96;87.80;99325.28;5113183;28;20230;-72
2023/10/04 10:34:52;;;;;;;2.70;1.40;;;;;;;17.44;86.97;99325.19;5113588;28;20620;-72
2023/10/04 10:37:22;;;;;;;4.43;1.70;;;;;;;17.70;81.70;99322.88;5113409;28;20248;-72
2023/10/04 10:39:52;;;;;;;3.63;1.70;;;;;;;17.64;85.49;99321.09;5113129;28;20203;-72
2023/10/04 10:42:19;;;;;;;2.73;1.87;;;;;;;17.16;83.02;99325.81;5113121;28;20209;-73
2023/10/04 10:44:47;;;;;;;3.93;2.17;;;;;;;17.04;84.55;99324.97;5113245;28;20199;-73
2023/10/04 10:47:16;;;;;;;3.40;1.40;;;;;;;16.70;84.13;99328.31;5113725;28;20203;-73
2023/10/04 10:49:44;;;;;;;4.33;1.80;;;;;;;16.77;82.95;99323.69;5113470;28;20301;-73
2023/10/04 10:52:25;;;;;;;4.63;1.60;;;;;;;16.78;84.78;99316.47;5113766;28;20608;-73
2023/10/04 10:54:53;;;;;;;2.97;1.63;;;;;;;16.74;86.27;99313.41;5113708;28;20233;-73
2023/10/04 10:57:21;;;;;;;4.73;1.60;;;;;;;16.84;85.74;99316.38;5113716;28;20202;-73
2023/10/04 10:59:54;;;;;;;4.90;1.80;;;;;;;17.27;82.60;99306.19;5112376;28;20896;-73
2023/10/04 11:02:22;;;;;;;5.37;1.70;;;;;;;17.11;83.23;99314.94;5113304;28;20188;-73
2023/10/04 11:04:50;;;;;;;3.53;1.80;;;;;;;17.16;85.90;99306.19;5113672;28;20256;-73
2023/10/04 11:07:17;;;;;;;3.13;1.80;;;;;;;17.05;88.37;99304.28;5112943;28;20203;-73
2023/10/04 11:09:55;;;;;;;5.20;1.77;;;;;;;16.95;87.99;99302.16;5113709;28;20203;-73
2023/10/04 11:12:22;;;;;;;6.97;1.97;;;;;;;16.79;87.86;99304.66;5113667;28;20192;-73
2023/10/04 11:14:53;;;;;;;2.60;2.13;;;;;;;16.91;87.28;99303.66;5113035;28;20219;-73
2023/10/04 11:17:21;;;;;;;3.90;1.90;;;;;;;16.89;82.28;99299.56;5113443;28;20194;-73
2023/10/04 11:19:50;;;;;;;3.17;1.87;;;;;;;16.85;79.99;99303.75;5113234;28;20260;-73
2023/10/04 11:22:17;;;;;;;2.33;1.43;;;;;;;17.23;79.07;99291.56;5113135;28;20781;-73
2023/10/04 11:24:44;;;;;;;2.93;1.83;;;;;;;17.31;79.51;99296.63;5113113;28;20225;-72
2023/10/04 11:27:11;;;;;;;3.87;1.53;;;;;;;17.44;77.68;99293.75;5112826;28;20547;-72
2023/10/04 11:29:40;;;;;;;4.33;2.23;;;;;;;17.29;77.27;99281.78;5112863;28;20210;-72
2023/10/04 11:32:06;;;;;;;5.60;2.37;;;;;;;17.53;73.46;99286.97;5114209;28;20523;-72
2023/10/04 11:34:37;;;;;;;3.63;1.80;;;;;;;17.49;74.84;99279.59;5113232;28;20215;-73